Ridgeway, WV (25440)

7:05 AM EDT en Agosto 28, 2014 (GMT -0400)
Snowden Bridge | Change Station
CLOSE
Current Station
Estación meteorológica personal
Location: Stephenson, VA
Altura: 616 ft
Estaciones meteorológicas cercanas

Alt 616 ft 39.22 °N, 78.10 °W | Updated 8 seconds ago

Parcialmente nublado
Parcialmente nublado
65.9 ° F
Sensación térmica 65.9 ° F
N
0.0
Viento Variable Viento desde NO
Gusts 0.0 mph

Hoy
Alta -- | Baja -- ° F
--% Posibilidad de precipitaciones
Ayer
Alta -- | Baja -- ° F
Precip. -- pul
6:37 AM 7:49 PM
Creciente, 7% visible
Presión 29.99 pul
Visibilidad 10.0 Millas
Nubes Despejado
Punto de rocío 61 ° F
Humedad 85%
Precipitaciones 0.00 pul
Espesor de la nieve No disponible.
UV 0 de una escala de 12
Polen 9.60 de una escala de 12
Calidad del aire No disponible.
Flu Activity No disponible.
METAR KMRB 281053Z 34006KT 10SM CLR 21/14 A3001 RMK AO2 SLP156 T02060144

More Conditions Fewer Conditions

Presión 29.99 pul
Visibilidad 10.0 Millas
Nubes Despejado
Punto de rocío 61 ° F
Humedad 85%
Precipitaciones 0.00 pul
Espesor de la nieve No disponible.
UV 0 de una escala de 12
Polen 9.60 de una escala de 12
Calidad del aire No disponible.
Flu Activity No disponible.
METAR KMRB 281053Z 34006KT 10SM CLR 21/14 A3001 RMK AO2 SLP156 T02060144

More Conditions Fewer Conditions

10-Day Weather Forecast

Almanac

Astronomía

Aug. 28, 2014 Salida Puesta
Hora real 6:37 AM EDT 7:49 PM EDT
Crepúsculo civil 6:09 AM EDT 8:16 PM EDT
Crepúsculo náutico 5:36 AM EDT 8:49 PM EDT
Crepúsculo astronómico 5:01 AM EDT 9:24 PM EDT
Luna 9:26 AM EDT 9:13 PM EDT
Horas de luz 14h 07m
Horas de luz
13h 12m
Tomorrow will be 2m 26s shorter.
Creciente, 7% of the Moon is Illuminated
Hoy
Creciente
Sep 2
Cuarto creciente
Sep 8
Luna llena
Sep 15
Cuarto menguante
Sep 24
Nueva

Extremos de hoy

Máximos del estado Bajos del estado

Community

WunderPhotos

Upload Photos

1,747,923 ¡fotos cargadas!

Nearby

Grosos de nieve

Estación Profundido Altura
No tenemos constancia de nieve nueva.

Actividad de terremotos

Ciudad Distance Mag. Tiempo y dato
No hay informes recientes de la actividad sísmica.
Magnitud mínima muestra es 2,5.

Temperaturas de aguas costeras

Lugar Temperatura
Sin partes meteorológicos de las estaciones

Estaciones meteorológicas cercanas